PWSweather.com
Personal Weather Stations
Station Observations

BlenheimNZ 7201

Lat: -41.5122524, Lon: 173.9699142

Elevation: 25

Station Type: WH1081

http://www.tokaanuskihire.co.nz/blenheimweather/BlenheimWeather.html

High Low Average
Temperature 64.4°F18.0°C 56.3°F13.5°C 60.6°F15.9°C
Dew Point 58.0°F14.4°C 50.0°F10.0°C 53.2°F11.8°C
Winds 14.7 mph 23.7 kmh 0.8 mph 1.3 kmh 8.0 mph SE12.9 kmh SE
Wind Gusts 26.0 mph41.8 kmh 2.2 mph3.5 kmh 15.0 mph24.1 kmh
Humidity 93% 60% 77%
Pressure 29.88 in1011.9 mb 29.77 in1008.1 mb -
Precipitation 0.15 in3.8 mm - -
Hour Temp Dew Point Humidity Winds Wind Gusts Pressure Precip Precip Rate Daily Precip Total
12:00 AM 60.1°F15.6°C 58.0°F14.4°C 93% 1.6 mph E2.6 kmh E 4.5 mph7.2 kmh 29.84 in1010.5 mb 0.00 in0.0 mm 0.00 in/hr0.0 mm/hr 0.00 in0.0 mm
12:30 AM 60.1°F15.6°C 57.7°F14.3°C 92% 2.2 mph N3.5 kmh N 3.1 mph5.0 kmh 29.84 in1010.5 mb 0.00 in0.0 mm 0.00 in/hr0.0 mm/hr 0.00 in0.0 mm
01:00 AM 60.3°F15.7°C 57.6°F14.2°C 91% 4.2 mph 6.8 kmh 6.0 mph9.7 kmh 29.84 in1010.5 mb 0.00 in0.0 mm 0.00 in/hr0.0 mm/hr 0.00 in0.0 mm
01:30 AM 59.9°F15.5°C 57.0°F13.9°C 90% 1.6 mph SE2.6 kmh SE 6.0 mph9.7 kmh 29.83 in1010.2 mb 0.00 in0.0 mm 0.00 in/hr0.0 mm/hr 0.00 in0.0 mm
02:00 AM 60.1°F15.6°C 56.2°F13.4°C 87% 4.5 mph ESE7.2 kmh ESE 9.8 mph15.8 kmh 29.82 in1009.8 mb 0.00 in0.0 mm 0.00 in/hr0.0 mm/hr 0.00 in0.0 mm
02:30 AM 60.1°F15.6°C 55.6°F13.1°C 85% 2.8 mph ESE4.5 kmh ESE 5.4 mph8.7 kmh 29.81 in1009.5 mb 0.00 in0.0 mm 0.00 in/hr0.0 mm/hr 0.00 in0.0 mm
03:00 AM 60.3°F15.7°C 55.4°F13.0°C 84% 2.2 mph E3.5 kmh E 5.4 mph8.7 kmh 29.81 in1009.5 mb 0.00 in0.0 mm 0.00 in/hr0.0 mm/hr 0.00 in0.0 mm
03:30 AM 60.1°F15.6°C 54.9°F12.7°C 83% 2.5 mph SE4.0 kmh SE 5.4 mph8.7 kmh 29.80 in1009.1 mb 0.00 in0.0 mm 0.00 in/hr0.0 mm/hr 0.00 in0.0 mm
04:00 AM 60.1°F15.6°C 54.2°F12.3°C 81% 2.8 mph E4.5 kmh E 7.6 mph12.2 kmh 29.81 in1009.5 mb 0.00 in0.0 mm 0.00 in/hr0.0 mm/hr 0.00 in0.0 mm
04:30 AM 59.9°F15.5°C 53.7°F12.1°C 80% 0.8 mph SSE1.3 kmh SSE 4.5 mph7.2 kmh 29.82 in1009.8 mb 0.00 in0.0 mm 0.00 in/hr0.0 mm/hr 0.00 in0.0 mm
05:00 AM 59.4°F15.2°C 53.9°F12.2°C 82% 6.9 mph S11.1 kmh S 15.9 mph25.6 kmh 29.82 in1009.8 mb 0.00 in0.0 mm 0.00 in/hr0.0 mm/hr 0.00 in0.0 mm
05:30 AM 60.8°F16.0°C 52.8°F11.6°C 75% 8.3 mph E13.4 kmh E 19.0 mph30.6 kmh 29.84 in1010.5 mb 0.00 in0.0 mm 0.00 in/hr0.0 mm/hr 0.00 in0.0 mm
06:00 AM 60.8°F16.0°C 52.8°F11.6°C 75% 7.0 mph SE11.3 kmh SE 12.1 mph19.5 kmh 29.85 in1010.8 mb 0.00 in0.0 mm 0.00 in/hr0.0 mm/hr 0.00 in0.0 mm
06:30 AM 61.0°F16.1°C 51.1°F10.6°C 70% 10.4 mph SE16.7 kmh SE 22.8 mph36.7 kmh 29.85 in1010.8 mb 0.00 in0.0 mm 0.00 in/hr0.0 mm/hr 0.00 in0.0 mm
07:00 AM 61.3°F16.3°C 50.7°F10.4°C 68% 6.9 mph SE11.1 kmh SE 13.0 mph20.9 kmh 29.86 in1011.2 mb 0.00 in0.0 mm 0.00 in/hr0.0 mm/hr 0.00 in0.0 mm
07:30 AM 61.5°F16.4°C 50.1°F10.1°C 66% 7.2 mph SE11.6 kmh SE 15.2 mph24.5 kmh 29.87 in1011.5 mb 0.00 in0.0 mm 0.00 in/hr0.0 mm/hr 0.00 in0.0 mm
08:00 AM 61.7°F16.5°C 50.2°F10.1°C 66% 8.1 mph SE13.0 kmh SE 16.8 mph27.0 kmh 29.88 in1011.9 mb 0.00 in0.0 mm 0.00 in/hr0.0 mm/hr 0.00 in0.0 mm
08:30 AM 62.4°F16.9°C 50.1°F10.1°C 64% 11.5 mph S18.5 kmh S 19.0 mph30.6 kmh 29.87 in1011.5 mb 0.00 in0.0 mm 0.00 in/hr0.0 mm/hr 0.00 in0.0 mm
09:00 AM 62.8°F17.1°C 50.4°F10.2°C 64% 10.5 mph S16.9 kmh S 19.7 mph31.7 kmh 29.88 in1011.9 mb 0.00 in0.0 mm 0.00 in/hr0.0 mm/hr 0.00 in0.0 mm
09:30 AM 62.8°F17.1°C 50.4°F10.2°C 64% 12.0 mph SSE19.3 kmh SSE 26.0 mph41.8 kmh 29.87 in1011.5 mb 0.00 in0.0 mm 0.00 in/hr0.0 mm/hr 0.00 in0.0 mm
10:00 AM 63.1°F17.3°C 50.3°F10.2°C 63% 11.5 mph SE18.5 kmh SE 19.0 mph30.6 kmh 29.86 in1011.2 mb 0.00 in0.0 mm 0.00 in/hr0.0 mm/hr 0.00 in0.0 mm
10:30 AM 63.5°F17.5°C 50.7°F10.4°C 63% 10.0 mph SE16.1 kmh SE 18.4 mph29.6 kmh 29.86 in1011.2 mb 0.00 in0.0 mm 0.00 in/hr0.0 mm/hr 0.00 in0.0 mm
11:00 AM 64.2°F17.9°C 50.0°F10.0°C 60% 10.8 mph SSE17.4 kmh SSE 24.4 mph39.3 kmh 29.86 in1011.2 mb 0.00 in0.0 mm 0.00 in/hr0.0 mm/hr 0.00 in0.0 mm
11:30 AM 63.9°F17.7°C 50.6°F10.3°C 62% 10.5 mph SE16.9 kmh SE 19.0 mph30.6 kmh 29.86 in1011.2 mb 0.00 in0.0 mm 0.00 in/hr0.0 mm/hr 0.00 in0.0 mm
12:00 PM 64.4°F18.0°C 52.0°F11.1°C 64% 10.2 mph SSW16.4 kmh SSW 20.6 mph33.2 kmh 29.86 in1011.2 mb 0.00 in0.0 mm 0.00 in/hr0.0 mm/hr 0.00 in0.0 mm
12:30 PM 64.0°F17.8°C 52.0°F11.1°C 65% 11.3 mph SSE18.2 kmh SSE 22.8 mph36.7 kmh 29.85 in1010.8 mb 0.00 in0.0 mm 0.00 in/hr0.0 mm/hr 0.00 in0.0 mm
01:00 PM 64.2°F17.9°C 52.2°F11.2°C 65% 14.7 mph S23.7 kmh S 23.5 mph37.8 kmh 29.84 in1010.5 mb 0.00 in0.0 mm 0.00 in/hr0.0 mm/hr 0.00 in0.0 mm
01:30 PM 62.4°F16.9°C 52.5°F11.4°C 70% 12.9 mph SE20.8 kmh SE 19.0 mph30.6 kmh 29.84 in1010.5 mb 0.00 in0.0 mm 0.00 in/hr0.0 mm/hr 0.00 in0.0 mm
02:00 PM 59.9°F15.5°C 53.0°F11.7°C 78% 13.7 mph SE22.0 kmh SE 23.5 mph37.8 kmh 29.84 in1010.5 mb 0.00 in0.0 mm 0.00 in/hr0.0 mm/hr 0.00 in0.0 mm
02:30 PM 58.5°F14.7°C 53.3°F11.8°C 83% 10.5 mph S16.9 kmh S 17.5 mph28.2 kmh 29.85 in1010.8 mb 0.00 in0.0 mm 0.00 in/hr0.0 mm/hr 0.00 in0.0 mm
03:00 PM 58.1°F14.5°C 53.6°F12.0°C 85% 10.9 mph SSE17.5 kmh SSE 16.8 mph27.0 kmh 29.84 in1010.5 mb 0.00 in0.0 mm 0.00 in/hr0.0 mm/hr 0.00 in0.0 mm
03:30 PM 57.6°F14.2°C 53.8°F12.1°C 87% 10.9 mph SSE17.5 kmh SSE 20.6 mph33.2 kmh 29.82 in1009.8 mb 0.01 in0.3 mm 0.02 in/hr0.5 mm/hr 0.01 in0.3 mm
04:00 PM 58.1°F14.5°C 53.6°F12.0°C 85% 6.9 mph SE11.1 kmh SE 15.2 mph24.5 kmh 29.83 in1010.2 mb 0.00 in0.0 mm 0.00 in/hr0.0 mm/hr 0.01 in0.3 mm
04:30 PM 57.6°F14.2°C 53.8°F12.1°C 87% 9.0 mph S14.5 kmh S 21.3 mph34.3 kmh 29.82 in1009.8 mb 0.02 in0.5 mm 0.04 in/hr1.0 mm/hr 0.04 in1.0 mm
05:00 PM 56.3°F13.5°C 53.7°F12.1°C 91% 5.7 mph S9.2 kmh S 9.8 mph15.8 kmh 29.81 in1009.5 mb 0.09 in2.3 mm 0.18 in/hr4.6 mm/hr 0.13 in3.3 mm
05:30 PM 56.8°F13.8°C 54.2°F12.3°C 91% 12.4 mph SE20.0 kmh SE 17.5 mph28.2 kmh 29.81 in1009.5 mb 0.01 in0.3 mm 0.02 in/hr0.5 mm/hr 0.14 in3.6 mm
06:00 PM 57.6°F14.2°C 54.0°F12.2°C 88% 6.3 mph S10.1 kmh S 13.7 mph22.0 kmh 29.81 in1009.5 mb 0.00 in0.0 mm 0.00 in/hr0.0 mm/hr 0.14 in3.6 mm
06:30 PM 57.2°F14.0°C 54.0°F12.2°C 89% 1.6 mph SE2.6 kmh SE 2.2 mph3.5 kmh 29.82 in1009.8 mb 0.00 in0.0 mm 0.00 in/hr0.0 mm/hr 0.14 in3.6 mm
07:00 PM 58.1°F14.5°C 54.2°F12.3°C 87% 6.5 mph SE10.5 kmh SE 11.4 mph18.3 kmh 29.82 in1009.8 mb 0.01 in0.3 mm 0.02 in/hr0.5 mm/hr 0.15 in3.8 mm
07:30 PM 59.0°F15.0°C 53.8°F12.1°C 83% 6.7 mph S10.8 kmh S 11.4 mph18.3 kmh 29.81 in1009.5 mb 0.00 in0.0 mm 0.00 in/hr0.0 mm/hr 0.15 in3.8 mm
08:00 PM 59.7°F15.4°C 53.5°F11.9°C 80% 6.0 mph SSE9.7 kmh SSE 11.4 mph18.3 kmh 29.81 in1009.5 mb 0.00 in0.0 mm 0.00 in/hr0.0 mm/hr 0.15 in3.8 mm
08:30 PM 60.3°F15.7°C 53.4°F11.9°C 78% 8.1 mph S13.0 kmh S 17.5 mph28.2 kmh 29.81 in1009.5 mb 0.00 in0.0 mm 0.00 in/hr0.0 mm/hr 0.15 in3.8 mm
09:00 PM 60.7°F15.9°C 52.7°F11.5°C 75% 11.5 mph S18.5 kmh S 19.0 mph30.6 kmh 29.81 in1009.5 mb 0.00 in0.0 mm 0.00 in/hr0.0 mm/hr 0.15 in3.8 mm
09:30 PM 61.3°F16.3°C 52.6°F11.4°C 73% 6.2 mph S10.0 kmh S 9.8 mph15.8 kmh 29.80 in1009.1 mb 0.00 in0.0 mm 0.00 in/hr0.0 mm/hr 0.15 in3.8 mm
10:00 PM 61.5°F16.4°C 52.4°F11.3°C 72% 8.3 mph SSE13.4 kmh SSE 18.4 mph29.6 kmh 29.79 in1008.8 mb 0.00 in0.0 mm 0.00 in/hr0.0 mm/hr 0.15 in3.8 mm
10:30 PM 61.9°F16.6°C 52.8°F11.6°C 72% 6.6 mph SE10.6 kmh SE 13.7 mph22.0 kmh 29.78 in1008.5 mb 0.00 in0.0 mm 0.00 in/hr0.0 mm/hr 0.15 in3.8 mm
11:00 PM 62.6°F17.0°C 53.1°F11.7°C 71% 6.1 mph S9.8 kmh S 15.9 mph25.6 kmh 29.77 in1008.1 mb 0.00 in0.0 mm 0.00 in/hr0.0 mm/hr 0.14 in3.6 mm
11:30 PM 63.0°F17.2°C 53.4°F11.9°C 71% 7.4 mph S11.9 kmh S 16.8 mph27.0 kmh 29.77 in1008.1 mb 0.00 in0.0 mm 0.00 in/hr0.0 mm/hr 0.14 in3.6 mm